Time;durP1;ratioP1;P1;durP2;ratioP2;P2;SDS_P1;SDS_P2;PMS_P1;PMS_P2;Temp;Humidity;BMP_temperature;BMP_pressure;BME280_temperature;BME280_humidity;BME280_pressure;Samples;Min_cycle;Max_cycle;Signal;HPM_P1;HPM_P2
2021/10/02 00:36:06;;;;;;;1.33;1.00;;;;;;;14.10;59.21;100667.41;4974812;28;20397;-82
2021/10/02 00:41:36;;;;;;;2.10;1.20;;;;;;;14.03;59.57;100663.22;4967203;28;20117;-81
2021/10/02 00:46:48;;;;;;;;;;;;;;;13.93;60.13;100649.38;4971215;28;20078;-83
2021/10/02 00:49:15;;;;;;;1.88;0.77;;;;;;;13.90;59.77;100652.09;4977194;28;20376;-81
2021/10/02 00:51:42;;;;;;;0.90;0.90;;;;;;;13.86;60.06;100653.94;4973081;28;20059;-81
2021/10/02 00:54:09;;;;;;;0.73;0.73;;;;;;;13.82;60.34;100644.38;4976594;28;20038;-81
2021/10/02 00:56:35;;;;;;;2.15;1.50;;;;;;;13.80;60.54;100634.78;4974725;28;20698;-80
2021/10/02 00:59:02;;;;;;;4.07;1.33;;;;;;;13.80;60.69;100650.56;4975730;28;20070;-81
2021/10/02 01:01:45;;;;;;;3.90;1.38;;;;;;;13.76;60.95;100643.66;4968922;28;20133;-80
2021/10/02 01:04:28;;;;;;;1.77;0.93;;;;;;;13.74;61.21;100641.06;4956241;28;20051;-80
2021/10/02 01:07:08;;;;;;;2.78;0.95;;;;;;;13.72;61.06;100643.69;4988857;28;20294;-81
2021/10/02 01:10:14;;;;;;;2.47;1.25;;;;;;;13.69;61.38;100643.78;4985367;28;20043;-80
2021/10/02 01:12:53;;;;;;;2.17;0.98;;;;;;;13.69;61.20;100650.81;4973105;28;20043;-81
2021/10/02 01:15:40;;;;;;;2.28;1.63;;;;;;;13.67;61.62;100642.09;4970505;28;20046;-81
2021/10/02 01:18:25;;;;;;;4.43;3.22;;;;;;;13.67;61.79;100642.09;4958308;28;20061;-81
2021/10/02 01:21:22;;;;;;;5.60;2.97;;;;;;;13.63;62.16;100636.00;4957808;28;20053;-81
2021/10/02 01:24:20;;;;;;;2.78;1.08;;;;;;;13.63;61.95;100635.16;4971973;28;20117;-81
2021/10/02 01:27:10;;;;;;;1.10;0.98;;;;;;;13.60;61.97;100633.47;4987015;28;20070;-82
2021/10/02 01:29:38;;;;;;;0.95;0.85;;;;;;;13.60;62.13;100638.72;4970348;28;20061;-82
2021/10/02 01:32:16;;;;;;;0.70;0.70;;;;;;;13.59;62.40;100630.88;4957909;28;20511;-84
2021/10/02 01:34:59;;;;;;;1.60;0.57;;;;;;;13.60;62.08;100637.84;4949643;28;20054;-83
2021/10/02 01:37:39;;;;;;;2.42;1.13;;;;;;;13.58;62.19;100632.63;4948151;29;20474;-80
2021/10/02 01:48:34;;;;;;;2.13;0.68;;;;;;;13.56;62.16;100635.28;4951301;28;20517;-82
2021/10/02 01:51:03;;;;;;;1.17;0.52;;;;;;;13.58;62.47;100637.88;4962821;28;20525;-82
2021/10/02 01:53:33;;;;;;;2.10;0.60;;;;;;;13.59;62.63;100622.97;4934830;29;20139;-81
2021/10/02 01:56:05;;;;;;;1.65;0.90;;;;;;;13.59;62.94;100637.00;4957339;28;20075;-81
2021/10/02 01:58:32;;;;;;;1.88;0.70;;;;;;;13.61;63.06;100629.06;4965958;28;20047;-80
2021/10/02 02:01:09;;;;;;;1.10;0.68;;;;;;;13.61;63.48;100624.69;4954722;28;20110;-80
2021/10/02 02:03:40;;;;;;;2.17;1.25;;;;;;;13.62;64.28;100639.53;4958260;28;20398;-81
2021/10/02 02:06:08;;;;;;;4.50;1.98;;;;;;;13.61;64.37;100642.22;4957844;28;20055;-81
2021/10/02 02:08:35;;;;;;;4.22;3.42;;;;;;;13.58;64.83;100640.50;4956255;28;20046;-81
2021/10/02 02:11:03;;;;;;;2.33;2.17;;;;;;;13.55;64.82;100641.44;4956764;28;20039;-81
2021/10/02 02:13:31;;;;;;;3.00;1.48;;;;;;;13.52;66.07;100632.78;4952046;28;20893;-83
2021/10/02 02:16:00;;;;;;;1.27;0.77;;;;;;;13.49;66.49;100644.22;4974061;28;20046;-82
2021/10/02 02:18:31;;;;;;;1.75;1.00;;;;;;;13.45;67.11;100637.28;4955816;28;20043;-81
2021/10/02 02:21:02;;;;;;;0.90;0.90;;;;;;;13.42;68.21;100633.88;4958881;28;20114;-81
2021/10/02 02:23:29;;;;;;;0.82;0.52;;;;;;;13.35;69.01;100635.69;4968405;28;20110;-82
2021/10/02 02:25:59;;;;;;;1.98;0.82;;;;;;;13.27;70.10;100629.75;4953941;28;20122;-80
2021/10/02 02:28:26;;;;;;;2.33;0.88;;;;;;;13.19;70.53;100635.16;4960207;28;20126;-81
2021/10/02 02:30:52;;;;;;;3.10;0.60;;;;;;;13.10;72.13;100630.09;4943707;28;20075;-81
2021/10/02 02:33:20;;;;;;;0.65;0.65;;;;;;;13.00;72.92;100632.03;4956609;29;20046;-81
2021/10/02 02:35:49;;;;;;;1.55;0.75;;;;;;;12.89;75.01;100626.97;4959018;28;20039;-81
2021/10/02 02:38:16;;;;;;;2.25;0.68;;;;;;;12.82;75.23;100634.09;4959478;28;21001;-81
2021/10/02 02:40:42;;;;;;;1.08;0.88;;;;;;;12.72;76.41;100643.03;4952508;28;20051;-81
2021/10/02 02:43:10;;;;;;;4.68;0.98;;;;;;;12.62;77.76;100645.00;4967883;28;20135;-80
2021/10/02 02:45:38;;;;;;;2.15;0.70;;;;;;;12.54;78.79;100642.50;4954701;28;20047;-81
2021/10/02 02:48:22;;;;;;;1.52;1.33;;;;;;;12.47;80.37;100640.84;4957031;28;20086;-82
2021/10/02 02:50:58;;;;;;;1.40;0.88;;;;;;;12.37;81.02;100642.78;4971369;28;20126;-80
2021/10/02 02:53:52;;;;;;;1.27;0.70;;;;;;;12.29;83.23;100639.41;4971824;28;20186;-82
2021/10/02 02:56:47;;;;;;;1.52;0.60;;;;;;;12.19;84.70;100640.44;4963665;28;20047;-81
2021/10/02 02:59:30;;;;;;;0.90;0.70;;;;;;;12.12;83.87;100634.41;4960491;28;20138;-81
2021/10/02 03:01:57;;;;;;;1.85;1.05;;;;;;;12.07;84.86;100633.63;4969579;28;20058;-80
2021/10/02 03:04:31;;;;;;;2.75;0.93;;;;;;;12.05;85.17;100636.28;4964583;28;20402;-81
2021/10/02 03:07:00;;;;;;;2.63;1.00;;;;;;;12.06;85.57;100630.13;4959383;28;20043;-81
2021/10/02 03:09:29;;;;;;;0.90;0.80;;;;;;;12.04;86.33;100634.53;4955989;28;20063;-81
2021/10/02 03:11:58;;;;;;;2.53;0.80;;;;;;;12.06;86.37;100631.91;4957392;28;20041;-80
2021/10/02 03:14:26;;;;;;;1.85;1.00;;;;;;;12.05;86.83;100630.16;4956077;28;20435;-82
2021/10/02 03:16:56;;;;;;;3.33;1.05;;;;;;;12.05;87.46;100619.69;4965318;28;20099;-81
2021/10/02 03:19:23;;;;;;;2.53;0.90;;;;;;;12.06;87.74;100622.28;4953064;28;20170;-81
2021/10/02 03:21:52;;;;;;;2.15;0.90;;;;;;;12.06;87.97;100624.91;4956130;28;20042;-79
2021/10/02 03:24:22;;;;;;;1.65;0.90;;;;;;;12.06;88.54;100619.66;4955037;28;20043;-79
2021/10/02 03:26:52;;;;;;;2.38;0.90;;;;;;;12.04;89.81;100621.41;4975528;28;20043;-80
2021/10/02 03:29:20;;;;;;;2.58;1.48;;;;;;;12.01;90.26;100616.22;4957131;28;20043;-80
2021/10/02 03:31:47;;;;;;;1.27;1.17;;;;;;;12.01;91.52;100615.38;4957243;28;20101;-79
2021/10/02 03:34:14;;;;;;;3.88;0.98;;;;;;;12.01;91.13;100621.47;4974223;28;20098;-79
2021/10/02 03:36:42;;;;;;;1.55;1.05;;;;;;;12.02;91.72;100625.84;4960648;28;20046;-80
2021/10/02 03:39:10;;;;;;;3.05;1.15;;;;;;;12.03;92.34;100622.31;4961292;28;20256;-80
2021/10/02 03:41:37;;;;;;;1.48;0.70;;;;;;;12.04;91.65;100617.94;4970024;28;20070;-80
2021/10/02 03:44:04;;;;;;;1.60;1.23;;;;;;;12.05;92.78;100627.53;4975619;28;20185;-81
2021/10/02 03:46:31;;;;;;;1.60;1.33;;;;;;;12.04;92.51;100620.56;4970189;28;20077;-80
2021/10/02 03:49:02;;;;;;;2.70;1.08;;;;;;;12.06;92.77;100622.28;4957451;28;20058;-81
2021/10/02 03:51:40;;;;;;;2.35;1.20;;;;;;;12.07;92.82;100616.13;4954547;28;20126;-81
2021/10/02 03:54:07;;;;;;;2.38;1.38;;;;;;;12.03;93.24;100618.81;4955798;28;20050;-82
2021/10/02 03:56:37;;;;;;;1.75;1.17;;;;;;;12.01;93.60;100624.09;4956692;28;20047;-81
2021/10/02 03:59:06;;;;;;;2.10;0.98;;;;;;;12.03;93.22;100617.09;4940902;28;20482;-80
2021/10/02 04:01:33;;;;;;;1.15;1.05;;;;;;;12.06;93.10;100624.03;4959531;28;20074;-82
2021/10/02 04:04:00;;;;;;;2.40;0.98;;;;;;;12.05;93.03;100619.69;4963215;28;21130;-83
2021/10/02 04:06:27;;;;;;;1.02;0.93;;;;;;;12.06;92.96;100629.28;4939501;28;20070;-82
2021/10/02 04:08:53;;;;;;;1.52;0.85;;;;;;;12.07;92.35;100618.75;4946938;28;20051;-82
2021/10/02 04:11:20;;;;;;;0.98;0.93;;;;;;;12.08;92.62;100620.50;4937457;29;20057;-82
2021/10/02 04:13:47;;;;;;;1.30;1.20;;;;;;;12.11;92.99;100630.09;4958665;28;20046;-82
2021/10/02 04:16:14;;;;;;;4.40;0.77;;;;;;;12.12;92.18;100621.28;4946431;28;20142;-82
2021/10/02 04:18:40;;;;;;;2.63;1.23;;;;;;;12.14;91.97;100623.91;4972677;28;20038;-82
2021/10/02 04:21:07;;;;;;;2.10;1.35;;;;;;;12.16;92.42;100625.63;4975681;28;20051;-81
2021/10/02 04:23:33;;;;;;;1.65;0.85;;;;;;;12.17;91.78;100624.72;4989409;28;20501;-80
2021/10/02 04:26:00;;;;;;;2.97;1.23;;;;;;;12.17;92.07;100624.72;4979172;28;20039;-82
2021/10/02 04:28:27;;;;;;;3.15;1.20;;;;;;;12.18;92.08;100620.34;4974280;28;20037;-82
2021/10/02 04:30:53;;;;;;;1.73;1.63;;;;;;;12.17;92.22;100624.72;4992603;28;20051;-81
2021/10/02 04:33:21;;;;;;;1.05;0.90;;;;;;;12.16;92.11;100625.63;4958613;28;20182;-82
2021/10/02 04:35:48;;;;;;;2.05;1.05;;;;;;;12.16;91.89;100625.63;4973097;28;20208;-83
2021/10/02 04:38:15;;;;;;;2.97;0.88;;;;;;;12.17;92.33;100621.22;4975254;28;20078;-84
2021/10/02 04:40:41;;;;;;;2.65;1.33;;;;;;;12.16;92.16;100616.88;4968673;28;20050;-81
2021/10/02 04:43:08;;;;;;;1.35;1.08;;;;;;;12.18;92.42;100615.97;4954458;28;20089;-80
2021/10/02 04:45:35;;;;;;;1.02;0.80;;;;;;;12.20;92.35;100614.19;4984922;28;20044;-82
2021/10/02 04:48:01;;;;;;;0.88;0.60;;;;;;;12.21;92.11;100623.78;4991527;28;20044;-81
2021/10/02 04:50:28;;;;;;;1.95;1.02;;;;;;;12.23;92.24;100615.91;4975058;28;20043;-81
2021/10/02 04:52:55;;;;;;;1.67;1.02;;;;;;;12.22;92.95;100608.91;4985143;28;20513;-81
2021/10/02 04:55:22;;;;;;;1.15;1.13;;;;;;;12.18;93.00;100604.59;4955269;28;20545;-81
2021/10/02 04:57:48;;;;;;;1.88;1.20;;;;;;;12.17;92.68;100601.09;4985199;28;20093;-82
2021/10/02 05:00:15;;;;;;;3.75;1.13;;;;;;;12.19;93.96;100606.31;4969956;28;20061;-82
2021/10/02 05:02:42;;;;;;;1.75;0.73;;;;;;;12.17;93.56;100608.13;4973702;28;20066;-81
2021/10/02 05:05:09;;;;;;;3.55;0.80;;;;;;;12.16;93.94;100607.25;4958687;28;20061;-81
2021/10/02 05:07:35;;;;;;;1.73;1.10;;;;;;;12.16;94.80;100593.25;4976206;28;20087;-81
2021/10/02 05:10:02;;;;;;;4.55;0.82;;;;;;;12.11;94.57;100590.72;4987881;28;20066;-81
2021/10/02 05:12:28;;;;;;;1.40;1.30;;;;;;;12.11;94.69;100588.09;4972647;28;20038;-82
2021/10/02 05:14:55;;;;;;;2.30;0.82;;;;;;;12.14;94.50;100592.44;4970559;28;20053;-84
2021/10/02 05:17:22;;;;;;;3.33;0.85;;;;;;;12.14;94.46;100593.28;4978215;28;20054;-83
2021/10/02 05:19:51;;;;;;;2.22;1.23;;;;;;;12.14;94.79;100590.66;4991667;28;20121;-84
2021/10/02 05:22:18;;;;;;;0.90;0.90;;;;;;;12.17;94.40;100593.22;4980259;28;20236;-82
2021/10/02 05:24:45;;;;;;;0.82;0.70;;;;;;;12.19;93.92;100595.81;4957842;28;20050;-82
2021/10/02 05:27:13;;;;;;;0.80;0.80;;;;;;;12.20;94.07;100601.06;4983568;28;20130;-81
2021/10/02 05:29:42;;;;;;;2.67;0.98;;;;;;;12.19;94.33;100601.94;4977283;28;20058;-82
2021/10/02 05:32:10;;;;;;;0.77;0.77;;;;;;;12.20;93.69;100594.94;4995601;28;20085;-82
2021/10/02 05:34:38;;;;;;;3.92;1.73;;;;;;;12.21;93.55;100591.41;4995717;28;20042;-82
2021/10/02 05:37:04;;;;;;;1.67;1.25;;;;;;;12.24;93.57;100599.22;4974606;28;20043;-82
2021/10/02 05:39:31;;;;;;;5.65;1.17;;;;;;;12.24;93.08;100597.50;4977595;28;20054;-81
2021/10/02 05:41:58;;;;;;;1.92;1.35;;;;;;;12.27;93.25;100601.81;4975425;28;20039;-83
2021/10/02 05:44:25;;;;;;;1.30;1.15;;;;;;;12.27;93.47;100593.06;4969450;28;20042;-83
2021/10/02 05:46:51;;;;;;;4.38;1.20;;;;;;;12.28;93.24;100593.06;4972114;28;20043;-81
2021/10/02 05:49:18;;;;;;;1.80;1.17;;;;;;;12.29;93.05;100599.16;4977040;28;20039;-82
2021/10/02 05:51:45;;;;;;;1.42;1.13;;;;;;;12.30;93.07;100600.91;4979870;28;20039;-82
2021/10/02 05:54:11;;;;;;;5.28;1.50;;;;;;;12.33;92.92;100604.34;4992288;28;20045;-81
2021/10/02 05:56:48;;;;;;;3.13;1.25;;;;;;;12.34;93.38;100611.31;4966380;28;20659;-83
2021/10/02 05:59:15;;;;;;;2.97;1.60;;;;;;;12.37;92.94;100610.38;4980913;28;20038;-80
2021/10/02 06:01:41;;;;;;;2.55;1.30;;;;;;;12.37;93.33;100615.66;4978746;28;20093;-82
2021/10/02 06:04:08;;;;;;;5.75;1.52;;;;;;;12.39;92.93;100609.47;4979229;28;20047;-81
2021/10/02 06:06:34;;;;;;;3.15;1.38;;;;;;;12.44;92.85;100611.16;4961456;28;20054;-80
2021/10/02 06:09:01;;;;;;;3.00;1.17;;;;;;;12.46;92.96;100609.38;4979387;28;20397;-80
2021/10/02 06:11:27;;;;;;;3.90;1.30;;;;;;;12.50;92.61;100617.19;4966428;28;20073;-82
2021/10/02 06:13:54;;;;;;;6.03;1.45;;;;;;;12.55;92.13;100622.34;4994099;28;20126;-80
2021/10/02 06:16:21;;;;;;;2.33;1.05;;;;;;;12.60;91.70;100620.50;4992209;28;20089;-80
2021/10/02 06:18:48;;;;;;;1.10;0.90;;;;;;;12.64;91.76;100621.31;4976900;28;20050;-81
2021/10/02 06:21:15;;;;;;;3.45;0.90;;;;;;;12.67;91.39;100618.63;4990588;28;20137;-80
2021/10/02 06:23:45;;;;;;;2.65;1.20;;;;;;;12.69;91.63;100628.22;4967588;28;20050;-82
2021/10/02 06:26:12;;;;;;;1.50;1.15;;;;;;;12.72;91.22;100628.19;4994649;28;20049;-80
2021/10/02 06:28:40;;;;;;;3.75;1.20;;;;;;;12.76;91.28;100625.47;4976938;28;20047;-82
2021/10/02 06:31:07;;;;;;;2.80;1.10;;;;;;;12.81;91.15;100626.25;4969320;28;20051;-81
2021/10/02 06:33:34;;;;;;;1.85;1.08;;;;;;;12.83;91.04;100622.72;4944358;29;20058;-83
2021/10/02 06:36:01;;;;;;;5.05;1.38;;;;;;;12.85;90.90;100639.31;4943593;29;20494;-81
2021/10/02 06:38:28;;;;;;;1.00;0.88;;;;;;;12.87;90.65;100645.41;4938385;29;20051;-81
2021/10/02 06:40:55;;;;;;;0.88;0.88;;;;;;;12.90;90.92;100652.34;4957277;29;20051;-80
2021/10/02 06:43:22;;;;;;;1.70;0.68;;;;;;;12.90;90.28;100650.59;4939865;29;20047;-82
2021/10/02 06:45:49;;;;;;;1.10;1.02;;;;;;;12.94;90.76;100650.53;4953740;28;20118;-82
2021/10/02 06:48:16;;;;;;;2.72;0.90;;;;;;;12.94;90.31;100648.78;4936607;29;20161;-80
2021/10/02 06:50:42;;;;;;;0.90;0.90;;;;;;;12.95;90.10;100653.13;4955123;28;20298;-81
2021/10/02 06:53:09;;;;;;;3.88;1.10;;;;;;;12.94;90.43;100653.19;4936560;28;20051;-82
2021/10/02 06:55:37;;;;;;;0.75;0.75;;;;;;;12.96;90.36;100660.13;4938326;28;20077;-82
2021/10/02 06:58:04;;;;;;;2.15;1.20;;;;;;;12.98;90.06;100649.59;4956456;28;20039;-83
2021/10/02 07:00:31;;;;;;;1.65;0.73;;;;;;;12.98;89.67;100647.81;4941128;28;20047;-82
2021/10/02 07:02:57;;;;;;;2.03;1.33;;;;;;;13.01;89.74;100654.78;4973416;28;20042;-81
2021/10/02 07:05:24;;;;;;;1.88;1.42;;;;;;;13.03;89.85;100655.63;4988591;28;20078;-81
2021/10/02 07:07:51;;;;;;;3.15;1.00;;;;;;;13.06;89.54;100652.94;4957148;28;20059;-81
2021/10/02 07:10:20;;;;;;;1.02;0.95;;;;;;;13.10;89.46;100653.75;4974962;28;20119;-81
2021/10/02 07:12:49;;;;;;;3.40;1.30;;;;;;;13.14;89.21;100643.16;4959346;28;20067;-81
2021/10/02 07:15:15;;;;;;;2.55;1.77;;;;;;;13.19;88.97;100638.66;4977134;28;20051;-83
2021/10/02 07:17:43;;;;;;;1.33;1.00;;;;;;;13.29;88.56;100638.47;4987579;28;20129;-81
2021/10/02 07:20:11;;;;;;;3.63;1.80;;;;;;;13.39;88.10;100637.44;4974055;28;20043;-80
2021/10/02 07:22:38;;;;;;;1.38;0.75;;;;;;;13.48;87.83;100638.97;4976155;28;20271;-81
2021/10/02 07:25:13;;;;;;;1.17;0.70;;;;;;;13.57;87.94;100644.03;4979627;28;20097;-80
2021/10/02 07:27:42;;;;;;;3.03;0.80;;;;;;;13.66;87.38;100643.84;4988450;28;20042;-80
2021/10/02 07:30:12;;;;;;;2.90;1.20;;;;;;;13.73;86.94;100644.59;4974243;28;20472;-80
2021/10/02 07:32:40;;;;;;;4.28;2.53;;;;;;;13.79;86.75;100635.69;4974054;28;20054;-80
2021/10/02 07:35:10;;;;;;;3.33;2.15;;;;;;;13.84;86.51;100639.06;4986441;28;20043;-80
2021/10/02 07:37:37;;;;;;;1.15;1.05;;;;;;;13.89;86.15;100631.94;4975408;28;20039;-80
2021/10/02 07:40:10;;;;;;;5.97;1.48;;;;;;;13.88;86.01;100631.09;4987383;28;20043;-80
2021/10/02 07:42:38;;;;;;;5.20;1.67;;;;;;;13.97;85.57;100630.00;4967365;28;20047;-81
2021/10/02 07:45:10;;;;;;;3.40;1.60;;;;;;;14.03;85.41;100632.47;4971055;28;20043;-84
2021/10/02 07:47:43;;;;;;;4.60;1.30;;;;;;;14.10;84.69;100622.66;4970771;28;20106;-82
2021/10/02 07:50:14;;;;;;;1.63;1.08;;;;;;;14.21;84.25;100606.63;4978401;28;20039;-81
2021/10/02 07:52:43;;;;;;;2.92;1.63;;;;;;;14.25;83.49;100610.03;4980764;28;20084;-81
2021/10/02 07:55:13;;;;;;;5.32;2.10;;;;;;;14.29;83.56;100615.19;4987391;28;20138;-80
2021/10/02 07:57:43;;;;;;;1.65;1.33;;;;;;;14.33;83.27;100614.22;4963733;28;20047;-82
2021/10/02 08:00:14;;;;;;;2.05;1.27;;;;;;;14.36;82.73;100629.06;4989739;28;20046;-80
2021/10/02 08:02:46;;;;;;;5.75;1.90;;;;;;;14.40;82.63;100633.34;4972205;28;20130;-80
2021/10/02 08:05:14;;;;;;;3.97;1.60;;;;;;;14.38;82.27;100617.59;4973312;28;20076;-80
2021/10/02 08:07:45;;;;;;;2.35;1.33;;;;;;;14.33;82.60;100619.47;4941096;28;20059;-81
2021/10/02 08:10:15;;;;;;;1.98;1.42;;;;;;;14.30;82.72;100623.94;4957623;28;20049;-84
2021/10/02 08:12:42;;;;;;;6.00;1.67;;;;;;;14.27;82.95;100624.03;4955497;28;20046;-81
2021/10/02 08:15:13;;;;;;;4.95;1.60;;;;;;;14.18;83.21;100626.00;4941818;28;20102;-79
2021/10/02 08:17:42;;;;;;;1.33;0.98;;;;;;;14.19;83.82;100632.97;4973827;28;20062;-80
2021/10/02 08:20:14;;;;;;;0.85;0.70;;;;;;;14.24;83.33;100614.44;4960183;28;20047;-86
2021/10/02 08:22:52;;;;;;;5.38;2.38;;;;;;;14.34;83.18;100613.31;4987348;28;20413;-80
2021/10/02 08:25:19;;;;;;;1.80;1.35;;;;;;;14.43;82.70;100614.84;4988042;28;20065;-82
2021/10/02 08:27:50;;;;;;;6.43;1.42;;;;;;;14.51;81.99;100622.53;4972744;28;20045;-81
2021/10/02 08:30:19;;;;;;;0.85;0.75;;;;;;;14.58;81.92;100639.91;4954691;28;20496;-82
2021/10/02 08:32:47;;;;;;;1.27;1.15;;;;;;;14.58;81.22;100626.75;4968021;28;20090;-81
2021/10/02 08:35:15;;;;;;;5.10;1.77;;;;;;;14.59;80.84;100624.97;4955026;28;20134;-81
2021/10/02 08:37:42;;;;;;;1.23;0.90;;;;;;;14.63;80.98;100624.88;4955921;28;20122;-81
2021/10/02 08:40:14;;;;;;;1.10;1.00;;;;;;;14.77;80.94;100631.56;4952563;28;20043;-79
2021/10/02 08:42:42;;;;;;;3.17;1.30;;;;;;;14.92;79.83;100619.75;4961291;28;20098;-83
2021/10/02 08:45:13;;;;;;;1.20;1.10;;;;;;;14.96;79.08;100616.97;4960148;28;20070;-83
2021/10/02 08:47:44;;;;;;;1.92;1.17;;;;;;;14.98;78.78;100616.94;4982351;28;20047;-81
2021/10/02 08:50:17;;;;;;;1.10;0.95;;;;;;;14.97;79.32;100623.97;4986510;28;20055;-83
2021/10/02 08:52:45;;;;;;;1.42;1.02;;;;;;;15.00;79.02;100630.94;4989299;28;20030;-82
2021/10/02 08:55:13;;;;;;;2.35;1.10;;;;;;;14.97;79.27;100626.63;4984742;28;20043;-83
2021/10/02 08:57:42;;;;;;;3.95;1.48;;;;;;;14.98;79.47;100625.72;4978983;28;20125;-81
2021/10/02 09:00:14;;;;;;;3.03;1.30;;;;;;;14.98;79.53;100631.00;4993857;28;20066;-82
2021/10/02 09:02:41;;;;;;;1.27;1.20;;;;;;;14.91;79.59;100631.19;4971276;28;20082;-79
2021/10/02 09:05:10;;;;;;;7.28;2.45;;;;;;;14.88;79.96;100619.81;4956433;28;20055;-81
2021/10/02 09:07:37;;;;;;;1.45;1.30;;;;;;;14.93;79.63;100611.78;4957218;28;20047;-83
2021/10/02 09:10:08;;;;;;;7.28;1.40;;;;;;;14.99;79.74;100623.94;4976000;28;20105;-83
2021/10/02 09:12:37;;;;;;;1.38;0.80;;;;;;;15.04;79.46;100611.50;4955320;28;20030;-83
2021/10/02 09:15:04;;;;;;;2.60;1.67;;;;;;;15.13;79.37;100608.59;4956638;28;20038;-82
2021/10/02 09:17:32;;;;;;;3.50;1.30;;;;;;;15.22;78.79;100605.69;4972348;28;20109;-82
2021/10/02 09:20:02;;;;;;;3.60;1.25;;;;;;;15.33;78.51;100604.50;4973425;28;20053;-81
2021/10/02 09:22:29;;;;;;;3.03;1.33;;;;;;;15.49;77.79;100597.03;4969361;28;20548;-80
2021/10/02 09:25:00;;;;;;;2.65;1.65;;;;;;;15.64;77.12;100599.16;4971807;28;20039;-83
2021/10/02 09:27:44;;;;;;;3.53;1.08;;;;;;;15.79;75.86;100597.00;4976285;28;20050;-81
2021/10/02 09:30:15;;;;;;;1.85;1.48;;;;;;;15.86;75.92;100591.47;4971664;28;20102;-83
2021/10/02 09:32:54;;;;;;;1.73;1.02;;;;;;;16.17;75.03;100602.81;4969085;28;20082;-80
2021/10/02 09:35:22;;;;;;;4.82;1.52;;;;;;;16.53;73.33;100597.19;4958815;28;20081;-81
2021/10/02 09:37:55;;;;;;;0.90;0.90;;;;;;;17.02;71.87;100586.69;4978795;28;20043;-80
2021/10/02 09:40:25;;;;;;;4.03;1.23;;;;;;;17.83;68.57;100584.47;4980865;28;20074;-80
2021/10/02 09:43:02;;;;;;;2.05;1.10;;;;;;;18.84;65.17;100574.03;4976227;28;20054;-83
2021/10/02 09:45:38;;;;;;;2.47;0.82;;;;;;;19.79;62.02;100564.38;4975018;28;20047;-81
2021/10/02 09:48:15;;;;;;;1.20;1.08;;;;;;;20.33;60.09;100569.69;4975819;28;20049;-82
2021/10/02 09:50:48;;;;;;;4.30;1.05;;;;;;;20.44;57.66;100571.78;4995868;28;20448;-82
2021/10/02 09:53:19;;;;;;;2.55;1.17;;;;;;;20.14;59.77;100570.63;4978635;28;20038;-81
2021/10/02 09:55:52;;;;;;;2.17;0.80;;;;;;;19.65;60.45;100571.22;4974745;28;20854;-82
2021/10/02 09:58:36;;;;;;;1.17;0.95;;;;;;;18.97;60.87;100578.84;4977609;28;20058;-81
2021/10/02 10:01:05;;;;;;;5.72;1.50;;;;;;;18.55;63.53;100580.66;4987305;28;20439;-82
2021/10/02 10:03:51;;;;;;;1.17;1.10;;;;;;;18.33;63.76;100578.06;4960011;28;20046;-79
2021/10/02 10:06:27;;;;;;;3.58;1.30;;;;;;;18.06;64.38;100572.97;4937331;29;20047;-83
2021/10/02 10:09:10;;;;;;;1.13;1.00;;;;;;;17.66;66.00;100580.72;4950765;28;20094;-80
2021/10/02 10:11:44;;;;;;;3.47;1.10;;;;;;;17.37;66.82;100579.22;4938575;29;20062;-83
2021/10/02 10:14:31;;;;;;;0.77;0.70;;;;;;;17.14;68.10;100569.50;4959284;29;20050;-82
2021/10/02 10:16:58;;;;;;;0.88;0.80;;;;;;;17.10;68.27;100563.47;4954944;28;20063;-83
2021/10/02 10:19:31;;;;;;;1.00;0.90;;;;;;;17.20;68.29;100564.84;4962397;28;20055;-81
2021/10/02 10:22:19;;;;;;;1.88;0.75;;;;;;;17.57;66.82;100562.53;4973619;28;20043;-81
2021/10/02 10:24:59;;;;;;;0.80;0.70;;;;;;;17.93;65.75;100564.66;4942887;29;20054;-80
2021/10/02 10:27:46;;;;;;;0.90;0.73;;;;;;;18.05;64.87;100562.44;4985103;28;20046;-81
2021/10/02 10:30:24;;;;;;;2.28;1.00;;;;;;;17.76;64.90;100556.53;4965241;28;20039;-81
2021/10/02 10:33:15;;;;;;;1.35;1.10;;;;;;;17.58;66.10;100555.47;4992148;28;20483;-82
2021/10/02 10:35:47;;;;;;;2.42;0.98;;;;;;;17.49;66.45;100554.91;4958119;28;20054;-81
2021/10/02 10:38:19;;;;;;;0.82;0.82;;;;;;;17.47;66.53;100559.41;4957193;28;20163;-83
2021/10/02 10:40:49;;;;;;;1.10;1.10;;;;;;;17.40;66.89;100557.91;4961786;28;20102;-79
2021/10/02 10:43:17;;;;;;;1.92;0.90;;;;;;;17.32;67.30;100560.84;4955332;28;20047;-81
2021/10/02 10:45:44;;;;;;;1.67;1.38;;;;;;;17.27;67.16;100556.66;4976517;28;20059;-81
2021/10/02 10:48:12;;;;;;;1.75;1.33;;;;;;;17.33;66.64;100546.72;4959244;28;20051;-81
2021/10/02 10:50:44;;;;;;;1.73;1.05;;;;;;;17.50;66.22;100553.97;4959046;28;20114;-80
2021/10/02 10:53:13;;;;;;;1.50;1.02;;;;;;;17.59;65.95;100566.00;4973327;28;20130;-81
2021/10/02 10:55:53;;;;;;;1.75;1.02;;;;;;;17.65;65.64;100554.28;4956930;28;20051;-81
2021/10/02 10:58:29;;;;;;;1.63;1.13;;;;;;;17.56;65.64;100552.91;4958059;28;20035;-83
2021/10/02 11:00:59;;;;;;;2.22;1.05;;;;;;;17.40;65.80;100557.91;4959780;28;20059;-80
2021/10/02 11:03:49;;;;;;;1.00;1.00;;;;;;;17.30;66.09;100554.78;4958076;28;20043;-81
2021/10/02 11:06:20;;;;;;;1.77;1.38;;;;;;;17.18;66.90;100550.81;4958285;28;20063;-81
2021/10/02 11:09:07;;;;;;;1.40;0.60;;;;;;;17.20;66.66;100541.03;4991221;28;20043;-81
2021/10/02 11:11:53;;;;;;;1.02;0.70;;;;;;;17.25;66.38;100537.34;4973616;28;20052;-83
2021/10/02 11:14:25;;;;;;;0.80;0.70;;;;;;;17.47;65.94;100535.59;4978273;28;20043;-82
2021/10/02 11:17:03;;;;;;;2.17;0.70;;;;;;;17.61;64.73;100529.75;4970878;28;20065;-84
2021/10/02 11:19:36;;;;;;;1.65;0.75;;;;;;;17.67;64.63;100533.94;4971257;28;20062;-83
2021/10/02 11:22:49;;;;;;;1.67;1.02;;;;;;;17.86;64.02;100521.66;4999692;28;20047;-83
2021/10/02 11:25:25;;;;;;;1.02;0.60;;;;;;;18.52;62.04;100517.13;4971565;28;20314;-81
2021/10/02 11:27:54;;;;;;;0.95;0.82;;;;;;;19.58;58.28;100494.59;4975472;28;20039;-82
2021/10/02 11:30:24;;;;;;;1.95;0.55;;;;;;;20.82;55.92;100486.50;4988155;28;20532;-81
2021/10/02 11:32:50;;;;;;;1.02;0.98;;;;;;;22.14;52.36;100470.09;4992021;28;20061;-81
2021/10/02 11:35:29;;;;;;;3.00;0.50;;;;;;;22.67;49.85;100476.72;4960563;28;20074;-80
2021/10/02 11:38:07;;;;;;;1.70;0.75;;;;;;;22.05;51.31;100473.31;4987817;28;20039;-82
2021/10/02 11:40:33;;;;;;;2.90;0.95;;;;;;;21.95;51.87;100480.13;4970619;28;20047;-80
2021/10/02 11:43:23;;;;;;;0.57;0.57;;;;;;;23.00;48.50;100475.53;4976960;28;20043;-82
2021/10/02 11:45:54;;;;;;;1.95;0.60;;;;;;;23.91;46.67;100478.50;4978082;28;20065;-81
2021/10/02 11:48:39;;;;;;;0.90;0.60;;;;;;;24.50;46.15;100474.47;4972482;28;20058;-80
2021/10/02 11:51:30;;;;;;;1.02;0.73;;;;;;;23.92;45.84;100471.34;4978718;28;20166;-81
2021/10/02 11:54:09;;;;;;;1.50;0.77;;;;;;;23.21;47.45;100470.66;4975547;28;20053;-83
2021/10/02 11:56:44;;;;;;;0.95;0.73;;;;;;;22.90;48.86;100465.44;4967852;28;20051;-83
2021/10/02 11:59:12;;;;;;;0.95;0.50;;;;;;;23.45;46.72;100454.84;4953968;28;20047;-80
2021/10/02 12:01:43;;;;;;;0.47;0.30;;;;;;;23.54;46.50;100454.22;4968626;28;20058;-82
2021/10/02 12:04:13;;;;;;;1.05;0.40;;;;;;;24.57;44.99;100457.00;4976610;28;21251;-81
2021/10/02 12:06:46;;;;;;;0.82;0.35;;;;;;;25.68;42.52;100453.47;4987336;28;20050;-82
2021/10/02 12:09:17;;;;;;;;;;;;;;;25.50;41.77;100455.72;4982869;28;20058;-82
2021/10/02 12:11:54;;;;;;;0.93;0.63;;;;;;;24.61;44.46;100465.69;5000238;28;19922;-83
2021/10/02 12:14:25;;;;;;;0.20;0.20;;;;;;;23.37;46.23;100459.84;4980246;28;20041;-82
2021/10/02 12:16:57;;;;;;;0.73;0.38;;;;;;;23.06;47.06;100465.34;4976143;28;20051;-84
2021/10/02 12:19:28;;;;;;;1.67;0.55;;;;;;;22.42;48.58;100452.44;4965102;28;20035;-82
2021/10/02 12:22:09;;;;;;;3.45;1.08;;;;;;;21.81;49.92;100463.16;4961630;28;20058;-80
2021/10/02 12:24:40;;;;;;;0.45;0.40;;;;;;;21.11;51.57;100468.91;4978876;28;20074;-82
2021/10/02 12:27:14;;;;;;;0.40;0.30;;;;;;;20.67;52.49;100469.53;4957920;28;20066;-80
2021/10/02 12:29:52;;;;;;;0.65;0.65;;;;;;;20.25;53.46;100461.09;4993649;28;20127;-81
2021/10/02 12:32:28;;;;;;;1.40;0.50;;;;;;;20.09;54.25;100466.38;4974034;28;20343;-81
2021/10/02 12:34:58;;;;;;;0.75;0.55;;;;;;;19.78;54.91;100459.94;4961294;28;20078;-80